createdAt,value
2022-12-09T08:15:00.919Z,9.90
2022-12-09T08:17:29.695Z,9.90
2022-12-09T08:19:57.266Z,9.80
2022-12-09T08:22:24.434Z,9.80
2022-12-09T08:24:51.606Z,9.80
2022-12-09T08:27:18.523Z,9.90
2022-12-09T08:29:48.180Z,9.90
2022-12-09T08:32:17.910Z,9.80
2022-12-09T08:34:45.888Z,9.70
2022-12-09T08:37:13.325Z,9.60
2022-12-09T08:39:40.636Z,9.50
2022-12-09T08:42:07.985Z,9.50
2022-12-09T08:44:34.947Z,9.50
2022-12-09T08:47:02.020Z,9.50
2022-12-09T08:49:29.900Z,9.40
2022-12-09T08:51:57.506Z,9.50
2022-12-09T08:54:24.958Z,9.50
2022-12-09T08:56:55.232Z,9.40
2022-12-09T08:59:23.035Z,9.40
2022-12-09T09:01:50.443Z,9.50
2022-12-09T09:04:22.986Z,9.60
2022-12-09T09:06:51.765Z,9.80
2022-12-09T09:09:20.518Z,9.70
2022-12-09T09:11:48.089Z,9.90
2022-12-09T09:14:15.797Z,10.20
2022-12-09T09:16:44.492Z,10.10
2022-12-09T09:19:20.406Z,9.80
2022-12-09T09:21:48.133Z,9.70
2022-12-09T09:24:18.171Z,9.70
2022-12-09T09:26:49.315Z,9.90
2022-12-09T09:29:18.964Z,9.80
2022-12-09T09:31:48.799Z,9.80
2022-12-09T09:34:18.009Z,9.90
2022-12-09T09:36:45.617Z,10.00
2022-12-09T09:39:13.170Z,10.10
2022-12-09T09:41:45.491Z,10.40
2022-12-09T09:44:33.802Z,10.50
2022-12-09T09:47:06.300Z,10.30
2022-12-09T09:49:59.643Z,10.20
2022-12-09T09:52:28.958Z,10.20
2022-12-09T09:54:57.066Z,10.20
2022-12-09T09:57:50.503Z,10.20
2022-12-09T10:00:22.753Z,10.20
2022-12-09T10:03:01.132Z,10.20
2022-12-09T10:05:35.658Z,10.00
2022-12-09T10:08:18.463Z,9.90
2022-12-09T10:11:36.655Z,9.90
2022-12-09T10:14:15.227Z,9.60
2022-12-09T10:16:56.385Z,9.50
2022-12-09T10:19:32.189Z,9.60
2022-12-09T10:22:05.830Z,9.60
2022-12-09T10:24:40.473Z,9.60
2022-12-09T10:27:21.193Z,9.50
2022-12-09T10:29:54.913Z,9.40
2022-12-09T10:32:25.974Z,9.50
2022-12-09T10:34:54.123Z,9.70
2022-12-09T10:37:33.825Z,9.80
2022-12-09T10:40:10.894Z,9.90
2022-12-09T10:43:07.446Z,10.00
2022-12-09T10:46:15.854Z,9.70
2022-12-09T10:48:40.323Z,9.70
2022-12-09T10:51:14.169Z,9.70
2022-12-09T10:53:48.944Z,9.70
2022-12-09T10:56:30.257Z,9.70
2022-12-09T10:59:09.711Z,9.70
2022-12-09T11:01:56.638Z,9.70
2022-12-09T11:04:40.598Z,9.90
2022-12-09T11:07:07.889Z,9.90
2022-12-09T11:09:38.923Z,10.10
2022-12-09T11:12:12.645Z,10.30
2022-12-09T11:14:48.543Z,10.40
2022-12-09T11:17:24.287Z,10.40
2022-12-09T11:19:54.254Z,10.30
2022-12-09T11:22:36.413Z,10.30
2022-12-09T11:25:12.949Z,10.30
2022-12-09T11:27:53.804Z,10.30
2022-12-09T11:30:57.591Z,10.40
2022-12-09T11:33:38.509Z,10.40
2022-12-09T11:36:19.251Z,10.30
2022-12-09T11:38:49.434Z,10.20
2022-12-09T11:41:43.889Z,10.30
2022-12-09T11:44:33.946Z,10.40
2022-12-09T11:47:02.454Z,10.50
2022-12-09T11:49:32.549Z,10.70
2022-12-09T11:52:10.241Z,10.90
2022-12-09T11:54:49.729Z,11.10
2022-12-09T11:57:34.510Z,11.20
2022-12-09T12:00:07.700Z,11.40
2022-12-09T12:02:43.564Z,11.60
2022-12-09T12:05:21.187Z,11.40
2022-12-09T12:08:07.274Z,11.20
2022-12-09T12:10:42.420Z,11.00
2022-12-09T12:13:49.780Z,10.80
2022-12-09T12:16:48.811Z,10.70
2022-12-09T12:19:29.763Z,10.60
2022-12-09T12:22:15.367Z,10.60
2022-12-09T12:25:18.302Z,10.50
2022-12-09T12:28:02.241Z,10.60
2022-12-09T12:30:41.024Z,10.60
2022-12-09T12:34:00.490Z,10.70
2022-12-09T12:36:39.566Z,10.60
2022-12-09T12:39:30.947Z,10.50
2022-12-09T12:42:12.420Z,10.50
2022-12-09T12:45:17.403Z,10.50
2022-12-09T12:48:04.377Z,10.50
2022-12-09T12:50:39.924Z,10.40
2022-12-09T12:53:22.032Z,10.40
2022-12-09T12:55:58.274Z,10.20
2022-12-09T12:58:39.116Z,10.30
2022-12-09T13:01:12.797Z,10.30
2022-12-09T13:04:15.782Z,10.10
2022-12-09T13:07:02.678Z,10.00
2022-12-09T13:10:02.837Z,10.20
2022-12-09T13:12:54.219Z,10.00
2022-12-09T13:15:38.908Z,10.00
2022-12-09T13:18:16.688Z,9.80
2022-12-09T13:20:48.374Z,9.90
2022-12-09T13:23:45.462Z,10.00
2022-12-09T13:26:21.150Z,10.10
2022-12-09T13:29:06.758Z,10.10
2022-12-09T13:31:36.380Z,10.10
2022-12-09T13:34:24.839Z,10.20
2022-12-09T13:36:51.711Z,10.30
2022-12-09T13:39:50.919Z,10.40
2022-12-09T13:42:46.529Z,10.40
2022-12-09T13:45:35.729Z,10.50
2022-12-09T13:48:16.503Z,10.50
2022-12-09T13:50:56.084Z,10.70
2022-12-09T13:53:41.326Z,10.80
2022-12-09T13:56:29.153Z,10.60
2022-12-09T13:59:17.903Z,10.40
2022-12-09T14:01:47.682Z,10.30
2022-12-09T14:04:26.330Z,10.30
2022-12-09T14:07:03.990Z,10.30
2022-12-09T14:09:43.768Z,10.30
2022-12-09T14:12:35.888Z,10.50
2022-12-09T14:15:23.325Z,10.50
2022-12-09T14:17:50.134Z,10.60
2022-12-09T14:20:29.207Z,10.70
2022-12-09T14:23:12.310Z,10.70
2022-12-09T14:25:56.116Z,10.80
2022-12-09T14:28:40.619Z,11.00
2022-12-09T14:31:09.228Z,11.30
2022-12-09T14:33:49.686Z,11.40
2022-12-09T14:36:16.515Z,11.50
2022-12-09T14:42:05.647Z,10.60
2022-12-09T14:44:47.725Z,10.50
2022-12-09T14:47:24.158Z,10.60
2022-12-09T14:49:56.154Z,10.40
2022-12-09T14:52:33.834Z,10.30
2022-12-09T14:55:08.874Z,10.40
2022-12-09T14:57:44.551Z,10.30
2022-12-09T15:00:44.202Z,10.30
2022-12-09T15:03:45.483Z,10.30
2022-12-09T15:06:17.791Z,10.50
2022-12-09T15:08:45.200Z,10.40
2022-12-09T15:11:24.191Z,10.40
2022-12-09T15:13:53.886Z,10.40
2022-12-09T15:16:24.562Z,10.50
2022-12-09T15:18:52.754Z,10.60
2022-12-09T15:21:30.127Z,10.60
2022-12-09T15:23:58.442Z,10.60
2022-12-09T15:26:34.704Z,10.60
2022-12-09T15:29:05.152Z,10.80
2022-12-09T15:31:34.298Z,10.90
2022-12-09T15:34:11.849Z,10.80
2022-12-09T15:36:43.025Z,10.80
2022-12-09T15:39:31.926Z,10.70
2022-12-09T15:42:12.738Z,10.70
2022-12-09T15:44:45.270Z,10.60
2022-12-09T15:47:16.403Z,10.60
2022-12-09T15:49:52.986Z,10.80
2022-12-09T15:52:25.199Z,10.80
2022-12-09T15:54:53.068Z,10.90
2022-12-09T15:57:22.206Z,10.90
2022-12-09T15:59:57.190Z,10.90
2022-12-09T16:02:30.527Z,10.90
2022-12-09T16:05:01.565Z,10.80
2022-12-09T16:07:32.715Z,10.70
2022-12-09T16:10:05.341Z,10.50
2022-12-09T16:12:35.379Z,10.60
2022-12-09T16:15:04.196Z,10.40
2022-12-09T16:17:35.462Z,10.40
2022-12-09T16:20:45.326Z,10.40
2022-12-09T16:23:24.972Z,10.30
2022-12-09T16:25:55.169Z,10.10
2022-12-09T16:28:24.873Z,10.10
2022-12-09T16:30:59.525Z,10.10
2022-12-09T16:33:27.819Z,10.10
2022-12-09T16:36:06.963Z,10.10
2022-12-09T16:38:36.678Z,10.10
2022-12-09T16:41:09.817Z,10.30
2022-12-09T16:43:51.642Z,10.20
2022-12-09T16:46:32.279Z,10.30
2022-12-09T16:49:04.745Z,10.40
2022-12-09T16:51:32.107Z,10.60
2022-12-09T16:53:59.514Z,10.50
2022-12-09T16:56:30.440Z,10.40
2022-12-09T16:58:59.335Z,10.40
2022-12-09T17:01:33.750Z,10.50
2022-12-09T17:04:27.023Z,10.30
2022-12-09T17:06:54.364Z,10.20
2022-12-09T17:09:21.307Z,10.20
2022-12-09T17:11:49.189Z,10.20
2022-12-09T17:14:17.320Z,10.30
2022-12-09T17:16:44.468Z,10.30
2022-12-09T17:19:12.624Z,10.30
2022-12-09T17:21:39.510Z,10.30
2022-12-09T17:24:06.857Z,10.30
2022-12-09T17:26:33.682Z,10.40
2022-12-09T17:29:01.984Z,10.40
2022-12-09T17:31:29.740Z,10.50
2022-12-09T17:33:57.480Z,10.40
2022-12-09T17:36:24.345Z,10.50
2022-12-09T17:38:53.439Z,10.60
2022-12-09T17:41:23.553Z,10.60
2022-12-09T17:43:50.540Z,10.60
2022-12-09T17:46:17.496Z,10.60
2022-12-09T17:48:44.607Z,10.60
2022-12-09T17:51:17.933Z,10.60
2022-12-09T17:53:45.699Z,10.60
2022-12-09T17:56:17.636Z,10.50
2022-12-09T17:58:44.623Z,10.60
2022-12-09T18:01:21.338Z,10.70
2022-12-09T18:03:57.853Z,10.60
2022-12-09T18:06:30.427Z,10.60
2022-12-09T18:08:57.446Z,10.70
2022-12-09T18:11:24.307Z,10.50
2022-12-09T18:13:51.386Z,10.50
2022-12-09T18:16:19.828Z,10.40
2022-12-09T18:18:46.823Z,10.30
2022-12-09T18:21:16.038Z,10.20
2022-12-09T18:23:43.617Z,10.20
2022-12-09T18:26:13.697Z,10.20
2022-12-09T18:28:40.923Z,10.40
2022-12-09T18:31:13.419Z,10.20
2022-12-09T18:33:41.037Z,10.10
2022-12-09T18:36:19.166Z,10.30
2022-12-09T18:38:46.052Z,10.30
2022-12-09T18:41:15.391Z,10.40
2022-12-09T18:43:44.164Z,10.80
2022-12-09T18:46:25.222Z,11.20
2022-12-09T18:49:20.606Z,11.00
2022-12-09T18:51:49.471Z,10.80
2022-12-09T18:54:24.993Z,11.10
2022-12-09T18:56:51.942Z,11.30
2022-12-09T18:59:19.799Z,11.60
2022-12-09T19:01:47.685Z,11.60
2022-12-09T19:04:23.890Z,11.50
2022-12-09T19:06:53.261Z,11.40
2022-12-09T19:09:26.660Z,11.00
2022-12-09T19:11:53.909Z,10.90
2022-12-09T19:14:22.583Z,10.80
2022-12-09T19:16:53.028Z,10.60
2022-12-09T19:19:25.389Z,10.50
2022-12-09T19:21:53.225Z,10.40
2022-12-09T19:24:21.740Z,10.30
2022-12-09T19:26:49.082Z,10.40
2022-12-09T19:29:19.956Z,10.30
2022-12-09T19:31:48.978Z,10.30
2022-12-09T19:34:18.849Z,10.30
2022-12-09T19:36:47.731Z,10.30
2022-12-09T19:39:18.021Z,10.30
2022-12-09T19:41:45.183Z,10.40
2022-12-09T19:44:21.681Z,10.40
2022-12-09T19:46:58.410Z,10.50
2022-12-09T19:49:25.722Z,10.70
2022-12-09T19:51:53.475Z,10.60
2022-12-09T19:54:26.753Z,10.50
2022-12-09T19:56:55.649Z,10.30
2022-12-09T19:59:22.434Z,10.10
2022-12-09T20:01:49.719Z,10.10
2022-12-09T20:04:47.735Z,10.30
2022-12-09T20:07:08.361Z,10.30
2022-12-09T20:09:37.067Z,10.30
2022-12-09T20:12:04.337Z,10.20
2022-12-09T20:14:31.113Z,10.10
2022-12-09T20:16:57.992Z,10.20
2022-12-09T20:19:24.974Z,10.40
2022-12-09T20:21:51.879Z,10.50
2022-12-09T20:24:19.402Z,10.70
2022-12-09T20:26:46.251Z,10.80
2022-12-09T20:29:13.167Z,10.60
2022-12-09T20:31:41.745Z,10.60
2022-12-09T20:34:12.643Z,10.50
2022-12-09T20:36:41.704Z,10.30
2022-12-09T20:39:16.970Z,10.40
2022-12-09T20:41:44.677Z,10.40
2022-12-09T20:44:12.958Z,10.30
2022-12-09T20:46:42.968Z,10.20
2022-12-09T20:49:10.300Z,10.30
2022-12-09T20:51:39.529Z,10.40
2022-12-09T20:54:08.037Z,10.50
2022-12-09T20:56:35.673Z,10.60
2022-12-09T20:59:03.516Z,10.60
2022-12-09T21:01:34.784Z,10.50
2022-12-09T21:04:02.759Z,10.50
2022-12-09T21:06:32.832Z,10.60
2022-12-09T21:09:05.516Z,10.80
2022-12-09T21:11:35.097Z,10.90
2022-12-09T21:14:03.722Z,11.00
2022-12-09T21:16:33.216Z,11.20
2022-12-09T21:19:05.207Z,11.20
2022-12-09T21:21:35.044Z,11.20
2022-12-09T21:24:02.289Z,11.20
2022-12-09T21:26:29.714Z,11.20
2022-12-09T21:28:59.306Z,11.20
2022-12-09T21:31:31.865Z,11.20
2022-12-09T21:34:01.651Z,11.20
